createdAt,value
2018-05-08T00:01:42.093Z,15.30
2018-05-08T00:04:09.960Z,15.20
2018-05-08T00:06:37.927Z,15.20
2018-05-08T00:09:06.000Z,15.10
2018-05-08T00:11:33.757Z,15.10
2018-05-08T00:14:01.629Z,15.10
2018-05-08T00:16:29.499Z,15.10
2018-05-08T00:18:57.363Z,15.10
2018-05-08T00:21:25.229Z,14.90
2018-05-08T00:23:53.097Z,14.90
2018-05-08T00:26:20.962Z,14.90
2018-05-08T00:28:48.829Z,14.80
2018-05-08T00:31:16.696Z,14.80
2018-05-08T00:33:44.563Z,14.80
2018-05-08T00:36:12.429Z,14.70
2018-05-08T00:38:40.296Z,14.70
2018-05-08T00:41:08.164Z,14.60
2018-05-08T00:43:36.029Z,14.60
2018-05-08T00:46:03.998Z,14.60
2018-05-08T00:48:31.764Z,14.60
2018-05-08T00:50:59.629Z,14.60
2018-05-08T00:53:27.495Z,14.60
2018-05-08T00:55:55.362Z,14.50
2018-05-08T00:58:23.228Z,14.50
2018-05-08T01:00:51.094Z,14.50
2018-05-08T01:03:19.064Z,14.50
2018-05-08T01:05:46.931Z,14.50
2018-05-08T01:08:14.797Z,14.50
2018-05-08T01:10:42.664Z,14.50
2018-05-08T01:13:10.535Z,14.50
2018-05-08T01:15:38.397Z,14.50
2018-05-08T01:18:06.264Z,14.50
2018-05-08T01:20:34.130Z,14.50
2018-05-08T01:23:02.002Z,14.40
2018-05-08T01:25:30.477Z,14.50
2018-05-08T01:27:58.350Z,14.50
2018-05-08T01:30:26.210Z,14.40
2018-05-08T01:32:54.183Z,14.40
2018-05-08T01:35:22.045Z,14.40
2018-05-08T01:37:49.912Z,14.40
2018-05-08T01:40:17.779Z,14.40
2018-05-08T01:42:45.748Z,14.30
2018-05-08T01:45:13.614Z,14.20
2018-05-08T01:47:41.481Z,14.20
2018-05-08T01:50:09.347Z,14.10
2018-05-08T01:52:37.214Z,14.10
2018-05-08T01:55:05.083Z,14.00
2018-05-08T01:57:32.948Z,14.00
2018-05-08T02:00:00.814Z,14.00
2018-05-08T02:02:28.682Z,14.00
2018-05-08T02:04:56.547Z,13.90
2018-05-08T02:07:24.449Z,13.90
2018-05-08T02:09:53.024Z,13.80
2018-05-08T02:12:20.966Z,13.80
2018-05-08T02:14:48.832Z,13.70
2018-05-08T02:17:16.700Z,13.70
2018-05-08T02:19:49.687Z,13.80
2018-05-08T02:22:19.562Z,13.70
2018-05-08T02:24:49.600Z,13.70
2018-05-08T02:27:17.484Z,13.60
2018-05-08T02:29:45.351Z,13.60
2018-05-08T02:32:13.218Z,13.60
2018-05-08T02:34:41.084Z,13.60
2018-05-08T02:37:08.953Z,13.70
2018-05-08T02:39:36.817Z,13.70
2018-05-08T02:42:04.610Z,13.60
2018-05-08T02:44:33.197Z,13.50
2018-05-08T02:47:01.854Z,13.50
2018-05-08T02:49:29.717Z,13.50
2018-05-08T02:51:57.588Z,13.50
2018-05-08T02:54:26.270Z,13.50
2018-05-08T02:56:54.136Z,13.50
2018-05-08T02:59:22.003Z,13.50
2018-05-08T03:01:49.870Z,13.50
2018-05-08T03:04:17.736Z,13.40
2018-05-08T03:06:45.602Z,13.40
2018-05-08T03:09:13.577Z,13.30
2018-05-08T03:11:41.439Z,13.30
2018-05-08T03:14:09.304Z,13.30
2018-05-08T03:16:37.171Z,13.30
2018-05-08T03:19:05.038Z,13.30
2018-05-08T03:21:32.903Z,13.20
2018-05-08T03:24:00.772Z,13.20
2018-05-08T03:26:28.637Z,13.30
2018-05-08T03:28:56.605Z,13.30
2018-05-08T03:31:24.472Z,13.40
2018-05-08T03:33:52.340Z,13.30
2018-05-08T03:36:20.205Z,13.20
2018-05-08T03:38:48.072Z,13.20
2018-05-08T03:41:15.868Z,13.10
2018-05-08T03:43:44.521Z,13.10
2018-05-08T03:46:12.491Z,13.00
2018-05-08T03:48:40.357Z,13.00
2018-05-08T03:51:08.327Z,13.10
2018-05-08T03:53:36.192Z,13.00
2018-05-08T03:56:04.060Z,13.10
2018-05-08T03:58:31.928Z,13.10
2018-05-08T04:01:11.601Z,13.20
2018-05-08T04:03:52.031Z,13.20
2018-05-08T04:09:25.568Z,13.10
2018-05-08T04:11:54.235Z,13.10
2018-05-08T04:14:22.102Z,13.10
2018-05-08T04:16:50.070Z,13.20
2018-05-08T04:19:17.939Z,13.20
2018-05-08T04:21:45.804Z,13.30
2018-05-08T04:24:13.671Z,13.20
2018-05-08T04:26:41.537Z,13.30
2018-05-08T04:29:09.404Z,13.40
2018-05-08T04:31:37.270Z,13.40
2018-05-08T04:34:05.137Z,13.40
2018-05-08T04:36:33.041Z,13.40
2018-05-08T04:39:01.692Z,13.40
2018-05-08T04:41:29.555Z,13.40
2018-05-08T04:43:57.423Z,13.40
2018-05-08T04:46:25.289Z,13.40
2018-05-08T04:48:53.155Z,13.40
2018-05-08T04:51:21.022Z,13.50
2018-05-08T04:53:48.888Z,13.60
2018-05-08T04:56:16.686Z,13.60
2018-05-08T04:58:45.340Z,13.70
2018-05-08T05:01:13.205Z,13.70
2018-05-08T05:03:41.072Z,13.80
2018-05-08T05:06:08.940Z,13.80
2018-05-08T05:08:36.765Z,13.90
2018-05-08T05:11:05.467Z,14.00
2018-05-08T05:13:34.073Z,14.10
2018-05-08T05:16:01.942Z,14.10
2018-05-08T05:18:29.806Z,14.20
2018-05-08T05:20:57.674Z,14.30
2018-05-08T05:23:25.540Z,14.30
2018-05-08T05:25:53.407Z,14.40
2018-05-08T05:28:21.273Z,14.40
2018-05-08T05:30:49.140Z,14.40
2018-05-08T05:33:17.008Z,14.40
2018-05-08T05:35:44.873Z,14.50
2018-05-08T05:38:12.740Z,14.50
2018-05-08T05:40:40.607Z,14.60
2018-05-08T05:43:08.474Z,14.70
2018-05-08T05:45:36.340Z,14.80
2018-05-08T05:48:04.132Z,14.80
2018-05-08T05:53:06.904Z,14.90
2018-05-08T05:55:34.667Z,14.90
2018-05-08T05:58:02.541Z,15.00
2018-05-08T06:00:30.398Z,15.10
2018-05-08T06:02:58.267Z,15.20
2018-05-08T06:05:26.237Z,15.30
2018-05-08T06:07:54.205Z,15.30
2018-05-08T06:10:22.072Z,15.40
2018-05-08T06:12:50.042Z,15.50
2018-05-08T06:15:17.836Z,15.60
2018-05-08T06:17:45.774Z,15.70
2018-05-08T06:20:13.639Z,15.70
2018-05-08T06:22:41.477Z,15.80
2018-05-08T06:25:09.274Z,16.00
2018-05-08T06:27:37.086Z,16.10
2018-05-08T06:30:05.105Z,16.30
2018-05-08T06:32:32.975Z,16.40
2018-05-08T06:35:00.769Z,16.60
2018-05-08T06:37:29.422Z,17.00
2018-05-08T06:39:57.359Z,16.90
2018-05-08T06:42:25.976Z,17.30
2018-05-08T06:44:53.841Z,17.30
2018-05-08T06:47:21.710Z,17.50
2018-05-08T06:49:49.470Z,17.60
2018-05-08T06:52:17.338Z,17.80
2018-05-08T06:54:45.205Z,18.00
2018-05-08T06:57:13.005Z,18.20
2018-05-08T06:59:41.558Z,20.20
2018-05-08T07:02:09.520Z,20.20
2018-05-08T07:04:37.389Z,21.60
2018-05-08T07:07:05.255Z,22.10
2018-05-08T07:09:33.223Z,22.50
2018-05-08T07:12:01.192Z,23.10
2018-05-08T07:14:28.955Z,23.70
2018-05-08T07:16:56.822Z,24.60
2018-05-08T07:19:24.689Z,25.10
2018-05-08T07:21:52.588Z,25.80
2018-05-08T07:24:20.525Z,26.50
2018-05-08T07:26:48.391Z,27.30
2018-05-08T07:29:16.463Z,28.00
2018-05-08T07:31:44.257Z,28.50
2018-05-08T07:34:12.911Z,29.30
2018-05-08T07:36:40.810Z,29.30
2018-05-08T07:39:08.676Z,29.80
2018-05-08T07:41:36.482Z,30.40
2018-05-08T07:44:04.378Z,30.70
2018-05-08T07:46:32.141Z,31.50
2018-05-08T07:49:00.010Z,32.10
2018-05-08T07:51:27.978Z,32.90
2018-05-08T07:53:55.775Z,33.50
2018-05-08T07:56:24.427Z,33.60
2018-05-08T07:58:52.227Z,33.60
2018-05-08T08:01:20.878Z,34.20
2018-05-08T08:03:48.671Z,34.10
2018-05-08T08:06:16.610Z,34.10
2018-05-08T08:08:44.476Z,34.20
2018-05-08T08:11:12.222Z,34.20
2018-05-08T08:13:40.106Z,34.50
2018-05-08T08:16:08.075Z,34.70
2018-05-08T08:18:35.965Z,34.70
2018-05-08T08:21:04.660Z,34.60
2018-05-08T08:23:32.597Z,34.60
2018-05-08T08:26:00.567Z,34.70
2018-05-08T08:28:28.432Z,34.90
2018-05-08T08:30:56.300Z,35.50
2018-05-08T08:33:24.094Z,35.40
2018-05-08T08:35:52.684Z,35.30
2018-05-08T08:38:21.335Z,35.10
2018-05-08T08:40:49.197Z,35.10
2018-05-08T08:43:16.967Z,34.80
2018-05-08T08:45:44.932Z,33.50
2018-05-08T08:48:12.800Z,32.10
2018-05-08T08:50:40.592Z,30.60
2018-05-08T08:53:08.528Z,29.40
2018-05-08T08:55:36.398Z,28.30
2018-05-08T08:58:04.266Z,27.20
2018-05-08T09:00:32.132Z,26.20
2018-05-08T09:02:59.997Z,25.50
2018-05-08T09:05:27.864Z,25.10
2018-05-08T09:07:55.656Z,25.00
2018-05-08T09:10:23.661Z,24.70
2018-05-08T09:12:52.285Z,24.10
2018-05-08T09:15:20.053Z,24.00
2018-05-08T09:17:47.914Z,24.00
2018-05-08T09:20:15.782Z,23.90
2018-05-08T09:22:43.647Z,23.90
2018-05-08T09:25:11.514Z,23.90
2018-05-08T09:27:39.409Z,23.80
2018-05-08T09:30:08.066Z,23.60
2018-05-08T09:32:35.861Z,23.60
2018-05-08T09:35:06.213Z,23.50
2018-05-08T09:37:33.969Z,23.60
2018-05-08T09:40:02.510Z,24.10
2018-05-08T09:42:30.270Z,24.00
2018-05-08T09:44:58.047Z,24.60
2018-05-08T09:47:25.843Z,25.40
2018-05-08T09:49:54.370Z,26.80
2018-05-08T09:52:22.149Z,26.70
2018-05-08T09:54:49.904Z,27.80
2018-05-08T09:57:17.678Z,29.10
2018-05-08T09:59:45.508Z,30.40
2018-05-08T10:02:13.357Z,31.30
2018-05-08T10:04:41.155Z,32.40
2018-05-08T10:07:08.936Z,33.10
2018-05-08T10:09:37.803Z,33.20
2018-05-08T10:12:05.590Z,33.50
2018-05-08T10:14:33.528Z,33.30
2018-05-08T10:17:01.329Z,33.10
2018-05-08T10:19:29.106Z,32.70
2018-05-08T10:21:56.897Z,32.40
2018-05-08T10:24:25.445Z,31.70
2018-05-08T10:26:54.015Z,30.90
2018-05-08T10:29:21.845Z,30.90
2018-05-08T10:31:49.598Z,30.20
2018-05-08T10:34:18.118Z,29.20
2018-05-08T10:36:45.870Z,29.20
2018-05-08T10:39:13.756Z,28.70
2018-05-08T10:41:41.550Z,28.60
2018-05-08T10:44:10.207Z,28.10
2018-05-08T10:46:38.002Z,28.00
2018-05-08T10:49:06.539Z,27.70
2018-05-08T10:51:34.307Z,27.60
2018-05-08T10:54:02.083Z,27.40
2018-05-08T10:56:29.846Z,27.40
2018-05-08T10:58:57.713Z,27.10
2018-05-08T11:01:25.478Z,26.90
2018-05-08T11:03:53.344Z,26.70
2018-05-08T11:06:21.209Z,26.60
2018-05-08T11:08:48.972Z,26.60
2018-05-08T11:11:16.840Z,26.50
2018-05-08T11:13:44.710Z,26.50
2018-05-08T11:16:13.378Z,26.40
2018-05-08T11:18:41.183Z,26.30
2018-05-08T11:21:08.948Z,26.30
2018-05-08T11:23:36.787Z,26.20
2018-05-08T11:26:04.563Z,26.20
2018-05-08T11:28:32.519Z,26.10
2018-05-08T11:31:00.272Z,26.20
2018-05-08T11:33:28.031Z,26.20
2018-05-08T11:35:55.798Z,26.30
2018-05-08T11:38:23.585Z,26.40
2018-05-08T11:40:51.368Z,26.50
2018-05-08T11:43:19.133Z,26.40
2018-05-08T11:45:46.916Z,26.50
2018-05-08T11:48:15.433Z,26.50
2018-05-08T11:50:43.196Z,26.40
2018-05-08T11:53:10.953Z,26.30
2018-05-08T11:55:38.709Z,26.10
2018-05-08T11:58:06.483Z,25.90
2018-05-08T12:00:34.241Z,25.70
2018-05-08T12:03:02.010Z,25.60
2018-05-08T12:05:29.761Z,25.60
2018-05-08T12:07:57.590Z,25.50
2018-05-08T12:10:25.342Z,25.40
2018-05-08T12:12:53.098Z,25.40
2018-05-08T12:15:20.876Z,25.40
2018-05-08T12:17:48.640Z,25.40
2018-05-08T12:20:17.017Z,25.30
2018-05-08T12:22:45.344Z,25.30
2018-05-08T12:25:13.150Z,25.20
2018-05-08T12:27:40.936Z,25.20
2018-05-08T12:30:09.095Z,25.20
2018-05-08T12:32:36.972Z,25.10
2018-05-08T12:35:06.246Z,25.10
2018-05-08T12:37:34.113Z,25.10
2018-05-08T12:40:01.917Z,25.10
2018-05-08T12:42:30.496Z,24.90
2018-05-08T12:44:59.024Z,24.90
2018-05-08T12:47:26.834Z,24.90
2018-05-08T12:49:54.705Z,24.90
2018-05-08T12:52:22.416Z,24.90
2018-05-08T12:54:50.183Z,24.80
2018-05-08T12:57:17.949Z,24.80
2018-05-08T12:59:45.705Z,24.80
2018-05-08T13:02:14.417Z,24.80
2018-05-08T13:04:42.283Z,24.80
2018-05-08T13:07:10.859Z,24.80
2018-05-08T13:09:38.738Z,24.80
2018-05-08T13:12:06.484Z,24.80
2018-05-08T13:14:34.248Z,25.00
2018-05-08T13:17:02.079Z,24.90
2018-05-08T13:19:30.102Z,25.00
2018-05-08T13:21:57.862Z,25.00
2018-05-08T13:24:25.830Z,25.00
2018-05-08T13:26:53.696Z,25.00
2018-05-08T13:29:21.562Z,25.00
2018-05-08T13:31:50.279Z,25.10
2018-05-08T13:34:18.513Z,25.20
2018-05-08T13:36:46.331Z,25.30
2018-05-08T13:39:14.061Z,25.20
2018-05-08T13:41:41.824Z,25.20
2018-05-08T13:44:09.604Z,25.20
2018-05-08T13:46:37.364Z,25.10
2018-05-08T13:49:05.133Z,25.00
2018-05-08T13:51:32.892Z,24.90
2018-05-08T13:54:00.743Z,24.60
2018-05-08T13:56:28.607Z,24.40
2018-05-08T13:58:56.576Z,24.20
2018-05-08T14:01:24.443Z,23.90
2018-05-08T14:03:52.310Z,23.70
2018-05-08T14:06:20.175Z,23.60
2018-05-08T14:08:48.458Z,23.50
2018-05-08T14:11:17.773Z,23.50
2018-05-08T14:13:47.017Z,23.60
2018-05-08T14:16:15.482Z,23.60
2018-05-08T14:18:43.466Z,23.60
2018-05-08T14:21:11.445Z,23.70
2018-05-08T14:23:40.259Z,23.70
2018-05-08T14:26:08.126Z,23.70
2018-05-08T14:28:35.965Z,23.90
2018-05-08T14:31:04.168Z,23.90
2018-05-08T14:33:32.852Z,24.00
2018-05-08T14:36:00.924Z,24.00
2018-05-08T14:38:29.016Z,23.90
2018-05-08T14:40:57.390Z,23.80
2018-05-08T14:43:26.448Z,23.40
2018-05-08T14:45:54.335Z,23.40
2018-05-08T14:48:22.205Z,23.20
2018-05-08T14:50:50.069Z,23.10
2018-05-08T14:53:17.861Z,23.00
2018-05-08T14:55:46.621Z,23.20
2018-05-08T14:58:14.417Z,23.10
2018-05-08T15:00:42.182Z,23.30
2018-05-08T15:03:09.944Z,23.30
2018-05-08T15:05:37.708Z,23.40
2018-05-08T15:08:05.473Z,23.50
2018-05-08T15:10:33.227Z,23.60
2018-05-08T15:13:00.989Z,23.60
2018-05-08T15:15:29.552Z,23.50
2018-05-08T15:17:57.337Z,23.50
2018-05-08T15:20:25.153Z,23.40
2018-05-08T15:22:52.933Z,23.30
2018-05-08T15:25:20.916Z,23.00
2018-05-08T15:27:48.690Z,22.90
2018-05-08T15:30:16.464Z,22.80
2018-05-08T15:32:44.243Z,22.60
2018-05-08T15:35:12.012Z,22.40
2018-05-08T15:37:40.574Z,22.10
2018-05-08T15:40:08.330Z,22.10
2018-05-08T15:42:36.079Z,22.00
2018-05-08T15:45:03.897Z,22.00
2018-05-08T15:47:32.447Z,21.90
2018-05-08T15:50:00.211Z,21.90
2018-05-08T15:52:27.997Z,21.90
2018-05-08T15:54:56.527Z,21.90
2018-05-08T15:57:24.292Z,21.90
2018-05-08T15:59:52.090Z,21.90
2018-05-08T16:02:19.858Z,21.90
2018-05-08T16:04:47.637Z,21.90
2018-05-08T16:07:16.170Z,21.90
2018-05-08T16:09:43.981Z,21.90
2018-05-08T16:12:11.746Z,22.00
2018-05-08T16:14:39.784Z,21.90
2018-05-08T16:17:07.667Z,21.90
2018-05-08T16:19:35.460Z,21.80
2018-05-08T16:22:04.033Z,21.70
2018-05-08T16:24:32.559Z,21.50
2018-05-08T16:27:00.353Z,21.50
2018-05-08T16:29:28.143Z,21.40
2018-05-08T16:31:55.909Z,21.30
2018-05-08T16:34:24.429Z,21.10
2018-05-08T16:36:52.196Z,21.10
2018-05-08T16:39:19.958Z,21.00
2018-05-08T16:41:47.721Z,20.90
2018-05-08T16:44:15.481Z,20.90
2018-05-08T16:46:43.244Z,20.80
2018-05-08T16:49:11.005Z,20.70
2018-05-08T16:51:38.774Z,20.50
2018-05-08T16:54:06.593Z,20.40
2018-05-08T16:56:34.403Z,20.30
2018-05-08T16:59:02.152Z,20.20
2018-05-08T17:01:30.702Z,19.90
2018-05-08T17:03:58.461Z,19.90
2018-05-08T17:06:26.213Z,19.80
2018-05-08T17:08:53.974Z,19.70
2018-05-08T17:11:21.739Z,19.50
2018-05-08T17:13:49.509Z,19.40
2018-05-08T17:16:17.251Z,19.30
2018-05-08T17:18:45.005Z,19.20
2018-05-08T17:21:12.773Z,19.10
2018-05-08T17:23:40.541Z,18.90
2018-05-08T17:26:08.342Z,18.70
2018-05-08T17:28:36.092Z,18.60
2018-05-08T17:31:03.852Z,18.50
2018-05-08T17:33:31.617Z,18.40
2018-05-08T17:35:59.378Z,18.20
2018-05-08T17:38:27.228Z,18.10
2018-05-08T17:40:55.060Z,18.00
2018-05-08T17:43:23.586Z,17.80
2018-05-08T17:45:51.565Z,17.80
2018-05-08T17:48:19.565Z,17.70
2018-05-08T17:50:47.328Z,17.60
2018-05-08T17:53:15.074Z,17.60
2018-05-08T17:55:42.889Z,17.50
2018-05-08T17:58:10.657Z,17.60
2018-05-08T18:00:38.737Z,17.60
2018-05-08T18:03:06.577Z,17.60
2018-05-08T18:05:35.214Z,17.60
2018-05-08T18:08:03.009Z,17.60
2018-05-08T18:10:30.809Z,17.50
2018-05-08T18:12:58.982Z,17.40
2018-05-08T18:15:27.026Z,17.30
2018-05-08T18:17:54.832Z,17.20
2018-05-08T18:20:22.609Z,17.10
2018-05-08T18:22:50.406Z,17.00
2018-05-08T18:25:18.363Z,17.10
2018-05-08T18:27:46.137Z,17.00
2018-05-08T18:30:14.045Z,16.90
2018-05-08T18:32:41.952Z,16.80
2018-05-08T18:35:09.819Z,16.90
2018-05-08T18:37:37.633Z,16.80
2018-05-08T18:40:06.176Z,16.80
2018-05-08T18:42:34.013Z,16.80
2018-05-08T18:45:01.841Z,16.80
2018-05-08T18:47:30.480Z,16.60
2018-05-08T18:49:58.259Z,16.60
2018-05-08T18:52:26.321Z,16.60
2018-05-08T18:54:54.091Z,16.50
2018-05-08T18:57:22.153Z,16.50
2018-05-08T18:59:49.985Z,16.60
2018-05-08T19:02:17.777Z,16.60
2018-05-08T19:04:45.753Z,16.60
2018-05-08T19:07:14.078Z,16.60
2018-05-08T19:09:41.974Z,16.60
2018-05-08T19:12:09.763Z,16.60
2018-05-08T19:14:38.789Z,16.70
2018-05-08T19:17:07.440Z,16.70
2018-05-08T19:19:40.826Z,16.70
2018-05-08T19:22:08.703Z,16.70
2018-05-08T19:24:37.065Z,16.70
2018-05-08T19:27:04.931Z,16.70
2018-05-08T19:29:38.506Z,16.70
2018-05-08T19:32:07.656Z,16.70
2018-05-08T19:34:41.994Z,16.70
2018-05-08T19:37:15.909Z,16.60
2018-05-08T19:39:45.003Z,16.70
2018-05-08T19:42:14.120Z,16.60
2018-05-08T19:44:41.929Z,16.70
2018-05-08T19:47:09.800Z,16.60
2018-05-08T19:49:38.833Z,16.50
2018-05-08T19:52:07.937Z,16.50
2018-05-08T19:54:35.784Z,16.50
2018-05-08T19:57:05.069Z,16.40
2018-05-08T19:59:32.833Z,16.40
2018-05-08T20:02:01.017Z,16.40
2018-05-08T20:04:29.561Z,16.40
2018-05-08T20:06:57.330Z,16.30
2018-05-08T20:09:25.760Z,16.40
2018-05-08T20:11:54.498Z,16.30
2018-05-08T20:14:22.249Z,16.30
2018-05-08T20:16:50.160Z,16.30
2018-05-08T20:19:18.510Z,16.20
2018-05-08T20:21:46.279Z,16.20
2018-05-08T20:24:14.845Z,16.10
2018-05-08T20:26:42.609Z,16.10
2018-05-08T20:29:10.620Z,16.10
2018-05-08T20:31:38.473Z,16.00
2018-05-08T20:34:06.266Z,15.90
2018-05-08T20:36:34.792Z,15.90
2018-05-08T20:39:02.673Z,15.90
2018-05-08T20:41:32.076Z,15.90
2018-05-08T20:44:00.762Z,16.00
2018-05-08T20:46:29.055Z,15.90
2018-05-08T20:48:56.906Z,16.00
2018-05-08T20:51:24.867Z,16.00
2018-05-08T20:53:52.740Z,16.10
2018-05-08T20:56:20.521Z,16.00
2018-05-08T20:58:48.284Z,16.00
2018-05-08T21:01:16.132Z,16.00
2018-05-08T21:03:44.582Z,16.00
2018-05-08T21:06:12.949Z,16.00
2018-05-08T21:08:41.170Z,16.00
2018-05-08T21:11:09.820Z,15.90
2018-05-08T21:13:37.580Z,15.90
2018-05-08T21:16:05.336Z,15.90
2018-05-08T21:18:33.090Z,15.90
2018-05-08T21:21:01.617Z,15.80
2018-05-08T21:23:29.378Z,15.80
2018-05-08T21:25:57.277Z,15.80
2018-05-08T21:28:31.133Z,15.80
2018-05-08T21:31:04.916Z,15.70
2018-05-08T21:33:33.447Z,15.60
2018-05-08T21:36:01.269Z,15.60
2018-05-08T21:38:30.448Z,15.60
2018-05-08T21:40:59.052Z,15.60
2018-05-08T21:43:26.967Z,15.60
2018-05-08T21:45:54.834Z,15.60
2018-05-08T21:48:22.673Z,15.50
2018-05-08T21:50:50.568Z,15.40
2018-05-08T21:53:18.583Z,15.40
2018-05-08T21:55:47.223Z,15.30
2018-05-08T21:58:15.220Z,15.30
2018-05-08T22:00:43.159Z,15.30
2018-05-08T22:03:11.026Z,15.20
2018-05-08T22:05:38.892Z,15.20
2018-05-08T22:08:06.759Z,15.20
2018-05-08T22:10:34.625Z,15.10
2018-05-08T22:13:02.492Z,15.00
2018-05-08T22:15:30.461Z,15.00
2018-05-08T22:17:58.328Z,14.90
2018-05-08T22:20:26.195Z,14.90
2018-05-08T22:22:54.060Z,14.90
2018-05-08T22:25:21.927Z,14.90
2018-05-08T22:27:49.793Z,14.90
2018-05-08T22:30:17.660Z,14.90
2018-05-08T22:32:45.531Z,14.90
2018-05-08T22:35:13.393Z,14.90
2018-05-08T22:37:41.260Z,14.90
2018-05-08T22:40:09.126Z,14.90
2018-05-08T22:42:36.993Z,14.90
2018-05-08T22:45:04.859Z,14.90
2018-05-08T22:47:32.727Z,14.90
2018-05-08T22:50:00.593Z,14.90
2018-05-08T22:52:28.462Z,14.80
2018-05-08T22:54:56.326Z,14.80
2018-05-08T22:57:24.192Z,14.80
2018-05-08T22:59:52.062Z,14.80
2018-05-08T23:02:19.925Z,14.70
2018-05-08T23:04:47.796Z,14.70
2018-05-08T23:07:15.659Z,14.60
2018-05-08T23:09:43.627Z,14.60
2018-05-08T23:12:11.596Z,14.70
2018-05-08T23:14:39.463Z,14.60
2018-05-08T23:17:07.330Z,14.60
2018-05-08T23:19:35.196Z,14.60
2018-05-08T23:22:03.069Z,14.60
2018-05-08T23:24:30.929Z,14.60
2018-05-08T23:26:58.796Z,14.60
2018-05-08T23:29:26.664Z,14.50
2018-05-08T23:31:54.529Z,14.50
2018-05-08T23:34:22.396Z,14.40
2018-05-08T23:36:50.188Z,14.40
2018-05-08T23:39:18.846Z,14.40
2018-05-08T23:41:46.713Z,14.40
2018-05-08T23:44:14.579Z,14.40
2018-05-08T23:46:42.476Z,14.40
2018-05-08T23:49:11.133Z,14.30
2018-05-08T23:51:38.997Z,14.30
2018-05-08T23:54:06.866Z,14.40
2018-05-08T23:56:34.733Z,14.40
2018-05-08T23:59:02.597Z,14.30
